createdAt,value
2023-06-06T00:01:19.281Z,19.16
2023-06-06T00:04:06.037Z,19.15
2023-06-06T00:06:54.125Z,19.13
2023-06-06T00:09:40.834Z,19.13
2023-06-06T00:12:29.765Z,19.14
2023-06-06T00:15:16.916Z,19.14
2023-06-06T00:18:03.724Z,19.15
2023-06-06T00:20:52.782Z,19.14
2023-06-06T00:23:39.517Z,19.14
2023-06-06T00:26:27.312Z,19.15
2023-06-06T00:29:14.385Z,19.14
2023-06-06T00:32:02.158Z,19.13
2023-06-06T00:34:48.874Z,19.11
2023-06-06T00:37:35.404Z,19.09
2023-06-06T00:40:22.317Z,19.08
2023-06-06T00:43:09.131Z,19.06
2023-06-06T00:45:56.700Z,19.03
2023-06-06T00:48:44.026Z,18.99
2023-06-06T00:51:30.875Z,18.96
2023-06-06T00:54:19.349Z,18.93
2023-06-06T00:57:08.540Z,18.90
2023-06-06T00:59:56.058Z,18.90
2023-06-06T01:02:45.070Z,18.89
2023-06-06T01:05:32.549Z,18.89
2023-06-06T01:08:18.775Z,18.90
2023-06-06T01:11:14.060Z,18.90
2023-06-06T01:14:24.264Z,18.91
2023-06-06T01:17:12.097Z,18.90
2023-06-06T01:20:00.909Z,18.89
2023-06-06T01:22:48.428Z,18.87
2023-06-06T01:25:36.892Z,18.84
2023-06-06T01:28:24.613Z,18.81
2023-06-06T01:31:13.106Z,18.78
2023-06-06T01:34:08.416Z,18.75
2023-06-06T01:37:01.792Z,18.72
2023-06-06T01:39:49.813Z,18.68
2023-06-06T01:42:41.929Z,18.62
2023-06-06T01:45:30.889Z,18.56
2023-06-06T01:48:18.844Z,18.52
2023-06-06T01:51:06.620Z,18.48
2023-06-06T01:53:54.935Z,18.44
2023-06-06T01:56:42.674Z,18.43
2023-06-06T01:59:30.092Z,18.41
2023-06-06T02:02:18.445Z,18.38
2023-06-06T02:05:05.283Z,18.34
2023-06-06T02:07:52.912Z,18.29
2023-06-06T02:10:40.350Z,18.20
2023-06-06T02:13:27.524Z,18.08
2023-06-06T02:16:14.507Z,17.87
2023-06-06T02:19:01.005Z,17.83
2023-06-06T02:21:48.773Z,17.72
2023-06-06T02:24:35.880Z,17.65
2023-06-06T02:27:22.541Z,17.54
2023-06-06T02:30:10.175Z,17.40
2023-06-06T02:32:57.755Z,17.23
2023-06-06T02:35:47.754Z,17.10
2023-06-06T02:38:34.264Z,16.99
2023-06-06T02:41:20.578Z,16.89
2023-06-06T02:44:07.306Z,16.86
2023-06-06T02:46:56.574Z,16.86
2023-06-06T02:49:43.207Z,16.87
2023-06-06T02:52:29.896Z,16.89
2023-06-06T02:55:16.426Z,16.90
2023-06-06T02:58:02.889Z,16.90
2023-06-06T03:00:49.413Z,16.89
2023-06-06T03:03:36.107Z,16.86
2023-06-06T03:06:23.096Z,16.78
2023-06-06T03:09:10.931Z,16.66
2023-06-06T03:11:58.839Z,16.59
2023-06-06T03:14:56.799Z,16.55
2023-06-06T03:17:45.193Z,16.55
2023-06-06T03:20:32.021Z,16.58
2023-06-06T03:23:26.979Z,16.61
2023-06-06T03:26:14.274Z,16.62
2023-06-06T03:29:01.444Z,16.59
2023-06-06T03:31:51.579Z,16.58
2023-06-06T03:34:40.723Z,16.62
2023-06-06T03:37:27.512Z,16.63
2023-06-06T03:40:14.208Z,16.64
2023-06-06T03:43:01.276Z,16.65
2023-06-06T03:45:48.231Z,16.62
2023-06-06T03:48:34.841Z,16.55
2023-06-06T03:51:21.428Z,16.50
2023-06-06T03:54:08.095Z,16.44
2023-06-06T03:56:55.478Z,16.42
2023-06-06T03:59:42.184Z,16.40
2023-06-06T04:02:33.251Z,16.34
2023-06-06T04:05:20.182Z,16.30
2023-06-06T04:08:09.120Z,16.27
2023-06-06T04:10:55.569Z,16.22
2023-06-06T04:13:42.776Z,16.20
2023-06-06T04:16:29.541Z,16.19
2023-06-06T04:19:16.708Z,16.18
2023-06-06T04:22:06.296Z,16.17
2023-06-06T04:24:53.946Z,16.09
2023-06-06T04:27:42.045Z,16.03
2023-06-06T04:30:30.490Z,15.97
2023-06-06T04:33:18.315Z,15.95
2023-06-06T04:36:07.321Z,15.93
2023-06-06T04:38:54.401Z,15.89
2023-06-06T04:44:32.758Z,15.83
2023-06-06T04:47:20.896Z,15.84
2023-06-06T04:50:09.234Z,15.88
2023-06-06T04:52:56.151Z,15.94
2023-06-06T04:55:42.749Z,16.00
2023-06-06T04:58:29.752Z,16.04
2023-06-06T05:01:17.262Z,16.10
2023-06-06T05:04:04.855Z,16.13
2023-06-06T05:06:51.989Z,16.14
2023-06-06T05:09:38.522Z,16.15
2023-06-06T05:12:25.988Z,16.18
2023-06-06T05:15:12.546Z,16.18
2023-06-06T05:17:59.528Z,16.20
2023-06-06T05:20:46.633Z,16.24
2023-06-06T05:23:33.368Z,16.28
2023-06-06T05:26:19.748Z,16.31
2023-06-06T05:29:06.393Z,16.41
2023-06-06T05:31:52.876Z,16.49
2023-06-06T05:34:39.964Z,16.60
2023-06-06T05:37:27.179Z,16.72
2023-06-06T05:40:14.299Z,16.86
2023-06-06T05:43:00.951Z,16.97
2023-06-06T05:45:47.296Z,17.07
2023-06-06T05:48:33.648Z,17.14
2023-06-06T05:51:20.951Z,17.17
2023-06-06T05:54:16.080Z,17.21
2023-06-06T05:57:04.577Z,17.25
2023-06-06T05:59:51.165Z,17.32
2023-06-06T06:02:38.193Z,17.40
2023-06-06T06:05:31.452Z,17.48
2023-06-06T06:08:19.027Z,17.55
2023-06-06T06:11:07.574Z,17.63
2023-06-06T06:13:54.267Z,17.72
2023-06-06T06:16:40.725Z,17.85
2023-06-06T06:19:27.226Z,17.97
2023-06-06T06:22:15.161Z,18.07
2023-06-06T06:25:01.717Z,18.25
2023-06-06T06:27:48.829Z,18.45
2023-06-06T06:30:35.285Z,18.54
2023-06-06T06:33:23.653Z,18.69
2023-06-06T06:36:10.280Z,18.80
2023-06-06T06:38:56.946Z,18.89
2023-06-06T06:41:43.742Z,19.00
2023-06-06T06:44:30.464Z,19.12
2023-06-06T06:47:20.558Z,19.25
2023-06-06T06:50:08.155Z,19.44
2023-06-06T06:52:57.548Z,19.55
2023-06-06T06:55:45.539Z,19.64
2023-06-06T06:58:35.501Z,19.72
2023-06-06T07:01:28.396Z,19.84
2023-06-06T07:04:15.975Z,19.89
2023-06-06T07:07:02.513Z,19.95
2023-06-06T07:09:49.026Z,20.07
2023-06-06T07:12:36.174Z,20.16
2023-06-06T07:15:22.744Z,20.25
2023-06-06T07:18:10.641Z,20.36
2023-06-06T07:20:57.027Z,20.42
2023-06-06T07:23:43.438Z,20.49
2023-06-06T07:26:30.314Z,20.54
2023-06-06T07:29:16.976Z,20.56
2023-06-06T07:32:03.639Z,20.68
2023-06-06T07:34:50.552Z,20.79
2023-06-06T07:37:40.090Z,20.90
2023-06-06T07:40:26.948Z,21.03
2023-06-06T07:43:13.714Z,21.18
2023-06-06T07:46:00.279Z,21.34
2023-06-06T07:48:46.739Z,21.41
2023-06-06T07:51:33.470Z,21.46
2023-06-06T07:54:20.488Z,21.51
2023-06-06T07:57:09.699Z,21.56
2023-06-06T07:59:56.281Z,21.60
2023-06-06T08:02:43.464Z,21.59
2023-06-06T08:05:30.302Z,21.61
2023-06-06T08:08:17.122Z,21.68
2023-06-06T08:11:03.724Z,21.71
2023-06-06T08:13:50.363Z,21.74
2023-06-06T08:16:36.961Z,21.79
2023-06-06T08:19:24.563Z,21.81
2023-06-06T08:22:10.977Z,21.85
2023-06-06T08:24:57.821Z,21.92
2023-06-06T08:27:44.771Z,21.98
2023-06-06T08:30:31.654Z,22.06
2023-06-06T08:33:21.429Z,22.16
2023-06-06T08:36:09.013Z,22.28
2023-06-06T08:38:56.836Z,22.40
2023-06-06T08:41:53.785Z,22.51
2023-06-06T08:44:43.141Z,22.57
2023-06-06T08:47:31.216Z,22.63
2023-06-06T08:50:18.020Z,22.67
2023-06-06T08:53:05.877Z,22.68
2023-06-06T08:55:56.695Z,22.68
2023-06-06T08:58:45.209Z,22.63
2023-06-06T09:01:32.130Z,22.63
2023-06-06T09:04:19.466Z,22.69
2023-06-06T09:07:14.192Z,22.79
2023-06-06T09:10:01.117Z,22.86
2023-06-06T09:12:48.368Z,22.88
2023-06-06T09:15:35.270Z,22.98
2023-06-06T09:18:23.053Z,23.10
2023-06-06T09:21:10.027Z,23.16
2023-06-06T09:23:56.376Z,23.18
2023-06-06T09:26:43.067Z,23.23
2023-06-06T09:29:39.301Z,23.26
2023-06-06T09:32:34.281Z,23.28
2023-06-06T09:35:21.480Z,23.27
2023-06-06T09:38:16.215Z,23.31
2023-06-06T09:41:02.855Z,23.41
2023-06-06T09:43:49.657Z,23.46
2023-06-06T09:46:38.999Z,23.46
2023-06-06T09:49:25.556Z,23.45
2023-06-06T09:52:14.495Z,23.48
2023-06-06T09:55:01.559Z,23.53
2023-06-06T09:57:48.797Z,23.58
2023-06-06T10:00:39.097Z,23.66
2023-06-06T10:03:26.285Z,23.72
2023-06-06T10:06:13.164Z,23.76
2023-06-06T10:08:59.885Z,23.82
2023-06-06T10:11:47.021Z,23.79
2023-06-06T10:14:33.975Z,23.78
2023-06-06T10:17:21.325Z,23.81
2023-06-06T10:20:10.686Z,23.86
2023-06-06T10:23:00.306Z,23.88
2023-06-06T10:25:47.639Z,23.95
2023-06-06T10:28:36.892Z,24.04
2023-06-06T10:31:34.604Z,24.12
2023-06-06T10:34:24.510Z,24.19
2023-06-06T10:37:23.171Z,24.29
2023-06-06T10:40:11.157Z,24.42
2023-06-06T10:42:58.005Z,24.52
2023-06-06T10:45:46.369Z,24.59
2023-06-06T10:48:43.680Z,24.60
2023-06-06T10:51:40.699Z,24.61
2023-06-06T10:54:35.139Z,24.58
2023-06-06T10:57:22.009Z,24.57
2023-06-06T11:00:11.237Z,24.58
2023-06-06T11:02:59.922Z,24.60
2023-06-06T11:06:02.458Z,24.64
2023-06-06T11:08:58.774Z,24.69
2023-06-06T11:11:47.275Z,24.74
2023-06-06T11:14:57.565Z,24.85
2023-06-06T11:17:49.522Z,25.00
2023-06-06T11:20:43.036Z,25.11
2023-06-06T11:23:41.267Z,25.23
2023-06-06T11:26:30.818Z,25.38
2023-06-06T11:29:19.906Z,25.48
2023-06-06T11:32:11.024Z,25.54
2023-06-06T11:34:58.873Z,25.57
2023-06-06T11:37:45.558Z,25.52
2023-06-06T11:40:32.459Z,25.46
2023-06-06T11:43:19.082Z,25.35
2023-06-06T11:46:07.468Z,25.20
2023-06-06T11:49:01.693Z,24.98
2023-06-06T11:52:01.851Z,24.76
2023-06-06T11:54:57.866Z,24.59
2023-06-06T11:57:44.818Z,24.41
2023-06-06T12:00:32.318Z,24.21
2023-06-06T12:03:18.956Z,24.04
2023-06-06T12:06:07.151Z,23.94
2023-06-06T12:08:54.044Z,23.83
2023-06-06T12:11:50.522Z,23.77
2023-06-06T12:14:37.427Z,23.69
2023-06-06T12:17:26.362Z,23.65
2023-06-06T12:20:13.216Z,23.61
2023-06-06T12:22:59.473Z,23.58
2023-06-06T12:25:54.981Z,23.57
2023-06-06T12:28:59.239Z,23.57
2023-06-06T12:31:47.214Z,23.54
2023-06-06T12:35:03.203Z,23.53
2023-06-06T12:37:50.342Z,23.55
2023-06-06T12:40:37.798Z,23.50
2023-06-06T12:43:24.114Z,23.46
2023-06-06T12:46:10.972Z,23.40
2023-06-06T12:48:57.351Z,23.39
2023-06-06T12:51:44.239Z,23.41
2023-06-06T12:54:31.121Z,23.34
2023-06-06T12:57:17.758Z,23.23
2023-06-06T13:00:09.358Z,23.20
2023-06-06T13:02:55.856Z,23.22
2023-06-06T13:05:42.495Z,23.18
2023-06-06T13:08:38.752Z,23.21
2023-06-06T13:11:27.886Z,23.29
2023-06-06T13:14:15.157Z,23.35
2023-06-06T13:17:12.699Z,23.42
2023-06-06T13:20:00.368Z,23.54
2023-06-06T13:22:47.075Z,23.55
2023-06-06T13:25:33.484Z,23.56
2023-06-06T13:28:20.066Z,23.57
2023-06-06T13:31:06.908Z,23.57
2023-06-06T13:33:53.640Z,23.57
2023-06-06T13:36:40.475Z,23.55
2023-06-06T13:39:30.083Z,23.53
2023-06-06T13:42:16.774Z,23.47
2023-06-06T13:45:03.785Z,23.47
2023-06-06T13:47:50.639Z,23.45
2023-06-06T13:50:37.936Z,23.42
2023-06-06T13:53:24.518Z,23.38
2023-06-06T13:56:11.624Z,23.32
2023-06-06T13:58:58.138Z,23.21
2023-06-06T14:01:48.430Z,23.15
2023-06-06T14:04:36.982Z,23.13
2023-06-06T14:07:24.997Z,23.11
2023-06-06T14:10:11.974Z,23.11
2023-06-06T14:12:59.238Z,23.09
2023-06-06T14:15:45.881Z,23.04
2023-06-06T14:18:32.556Z,22.99
2023-06-06T14:21:18.973Z,22.93
2023-06-06T14:24:08.817Z,22.87
2023-06-06T14:26:56.000Z,22.86
2023-06-06T14:29:42.757Z,22.81
2023-06-06T14:32:32.080Z,22.82
2023-06-06T14:35:19.192Z,22.82
2023-06-06T14:38:06.035Z,22.77
2023-06-06T14:40:54.821Z,22.80
2023-06-06T14:43:41.762Z,22.91
2023-06-06T14:46:32.046Z,22.98
2023-06-06T14:49:18.394Z,22.91
2023-06-06T14:52:07.964Z,22.90
2023-06-06T14:54:54.989Z,22.89
2023-06-06T14:57:41.887Z,22.89
2023-06-06T15:00:28.729Z,22.93
2023-06-06T15:03:16.118Z,22.94
2023-06-06T15:06:04.487Z,22.92
2023-06-06T15:08:51.182Z,22.87
2023-06-06T15:11:37.675Z,22.81
2023-06-06T15:14:27.047Z,22.72
2023-06-06T15:17:13.525Z,22.62
2023-06-06T15:20:00.806Z,22.52
2023-06-06T15:22:47.493Z,22.49
2023-06-06T15:25:33.972Z,22.47
2023-06-06T15:28:27.101Z,22.43
2023-06-06T15:31:13.570Z,22.41
2023-06-06T15:34:03.219Z,22.35
2023-06-06T15:36:49.596Z,22.34
2023-06-06T15:39:40.743Z,22.29
2023-06-06T15:42:27.608Z,22.20
2023-06-06T15:45:15.811Z,22.14
2023-06-06T15:48:03.694Z,22.06
2023-06-06T15:50:50.180Z,22.05
2023-06-06T15:53:36.753Z,22.05
2023-06-06T15:56:23.324Z,22.01
2023-06-06T15:59:12.380Z,21.99
2023-06-06T16:01:58.715Z,21.98
2023-06-06T16:04:45.573Z,21.96
2023-06-06T16:07:31.850Z,21.96
2023-06-06T16:10:18.329Z,21.94
2023-06-06T16:13:06.046Z,21.96
2023-06-06T16:15:53.172Z,21.98
2023-06-06T16:18:41.017Z,22.00
2023-06-06T16:21:28.084Z,21.97
2023-06-06T16:24:20.854Z,21.96
2023-06-06T16:27:07.638Z,21.95
2023-06-06T16:29:54.329Z,21.95
2023-06-06T16:32:41.931Z,21.95
2023-06-06T16:35:28.613Z,21.97
2023-06-06T16:38:15.161Z,21.87
2023-06-06T16:41:03.185Z,21.76
2023-06-06T16:43:50.778Z,21.74
2023-06-06T16:46:37.593Z,21.73
2023-06-06T16:49:24.475Z,21.73
2023-06-06T16:52:12.121Z,21.71
2023-06-06T16:54:58.850Z,21.65
2023-06-06T16:57:45.462Z,21.55
2023-06-06T17:00:32.225Z,21.48
2023-06-06T17:03:19.674Z,21.41
2023-06-06T17:06:07.727Z,21.37
2023-06-06T17:08:54.271Z,21.33
2023-06-06T17:11:40.885Z,21.24
2023-06-06T17:14:28.648Z,21.20
2023-06-06T17:17:17.893Z,21.20
2023-06-06T17:20:05.139Z,21.19
2023-06-06T17:22:51.727Z,21.13
2023-06-06T17:25:49.928Z,21.08
2023-06-06T17:28:40.773Z,21.06
2023-06-06T17:31:30.221Z,21.01
2023-06-06T17:34:16.957Z,20.97
2023-06-06T17:37:03.490Z,20.94
2023-06-06T17:39:53.676Z,20.92
2023-06-06T17:42:40.204Z,20.90
2023-06-06T17:45:27.594Z,20.90
2023-06-06T17:48:14.505Z,20.88
2023-06-06T17:51:02.805Z,20.85
2023-06-06T17:53:52.533Z,20.82
2023-06-06T17:56:39.379Z,20.80
2023-06-06T17:59:25.726Z,20.77
2023-06-06T18:02:12.567Z,20.76
2023-06-06T18:05:05.037Z,20.71
2023-06-06T18:07:56.586Z,20.65
2023-06-06T18:10:44.459Z,20.59
2023-06-06T18:13:33.948Z,20.55
2023-06-06T18:16:20.831Z,20.44
2023-06-06T18:19:09.721Z,20.39
2023-06-06T18:21:57.198Z,20.34
2023-06-06T18:24:43.880Z,20.30
2023-06-06T18:27:31.403Z,20.22
2023-06-06T18:30:25.978Z,20.15
2023-06-06T18:33:14.368Z,20.10
2023-06-06T18:36:02.659Z,20.07
2023-06-06T18:38:49.080Z,20.04
2023-06-06T18:41:39.368Z,20.01
2023-06-06T18:44:26.254Z,19.95
2023-06-06T18:47:13.706Z,19.90
2023-06-06T18:50:16.101Z,19.88
2023-06-06T18:53:03.184Z,19.87
2023-06-06T18:55:54.672Z,19.82
2023-06-06T18:58:43.695Z,19.79
2023-06-06T19:01:31.854Z,19.78
2023-06-06T19:04:19.968Z,19.76
2023-06-06T19:07:08.544Z,19.71
2023-06-06T19:09:55.907Z,19.68
2023-06-06T19:12:49.088Z,19.66
2023-06-06T19:15:36.122Z,19.60
2023-06-06T19:18:32.060Z,19.61
2023-06-06T19:21:22.468Z,19.53
2023-06-06T19:24:09.854Z,19.48
2023-06-06T19:26:58.200Z,19.43
2023-06-06T19:29:46.612Z,19.40
2023-06-06T19:32:35.146Z,19.38
2023-06-06T19:35:22.380Z,19.36
2023-06-06T19:38:13.725Z,19.33
2023-06-06T19:41:00.941Z,19.32
2023-06-06T19:43:48.681Z,19.31
2023-06-06T19:46:36.234Z,19.28
2023-06-06T19:49:23.325Z,19.27
2023-06-06T19:52:13.706Z,19.23
2023-06-06T19:55:01.566Z,19.21
2023-06-06T19:57:53.031Z,19.20
2023-06-06T20:00:40.550Z,19.20
2023-06-06T20:03:28.134Z,19.21
2023-06-06T20:06:16.885Z,19.22
2023-06-06T20:09:05.027Z,19.21
2023-06-06T20:11:59.478Z,19.20
2023-06-06T20:14:47.384Z,19.19
2023-06-06T20:17:38.774Z,19.16
2023-06-06T20:20:25.679Z,19.14
2023-06-06T20:23:13.344Z,19.07
2023-06-06T20:26:05.468Z,19.02
2023-06-06T20:28:52.041Z,18.97
2023-06-06T20:31:39.050Z,18.95
2023-06-06T20:34:25.991Z,18.94
2023-06-06T20:37:13.240Z,18.93
2023-06-06T20:40:18.193Z,18.90
2023-06-06T20:43:05.279Z,18.85
2023-06-06T20:45:53.425Z,18.82
2023-06-06T20:48:40.375Z,18.77
2023-06-06T20:51:28.249Z,18.73
2023-06-06T20:54:14.924Z,18.70
2023-06-06T20:57:02.452Z,18.70
2023-06-06T20:59:52.522Z,18.67
2023-06-06T21:02:39.889Z,18.67
2023-06-06T21:05:27.217Z,18.67
2023-06-06T21:08:14.077Z,18.67
2023-06-06T21:11:01.472Z,18.65
2023-06-06T21:13:48.536Z,18.65
2023-06-06T21:16:38.330Z,18.65
2023-06-06T21:19:29.541Z,18.65
2023-06-06T21:22:19.696Z,18.63
2023-06-06T21:25:06.938Z,18.59
2023-06-06T21:27:54.369Z,18.54
2023-06-06T21:30:40.993Z,18.52
2023-06-06T21:33:27.915Z,18.50
2023-06-06T21:36:16.691Z,18.46
2023-06-06T21:39:03.270Z,18.44
2023-06-06T21:41:49.841Z,18.44
2023-06-06T21:44:36.060Z,18.43
2023-06-06T21:47:22.631Z,18.42
2023-06-06T21:50:10.944Z,18.41
2023-06-06T21:52:57.499Z,18.40
2023-06-06T21:55:43.949Z,18.36
2023-06-06T21:58:31.263Z,18.31
2023-06-06T22:01:17.674Z,18.27
2023-06-06T22:04:04.504Z,18.26
2023-06-06T22:06:51.227Z,18.26
2023-06-06T22:09:37.814Z,18.25
2023-06-06T22:12:24.063Z,18.24
2023-06-06T22:15:10.887Z,18.19
2023-06-06T22:17:57.429Z,18.18
2023-06-06T22:20:45.902Z,18.14
2023-06-06T22:23:35.099Z,18.11
2023-06-06T22:26:22.506Z,18.11
2023-06-06T22:29:09.240Z,18.11
2023-06-06T22:31:56.178Z,18.08
2023-06-06T22:34:42.814Z,18.07
2023-06-06T22:37:29.732Z,18.06
2023-06-06T22:40:16.401Z,18.06
2023-06-06T22:43:03.141Z,18.08
2023-06-06T22:45:49.744Z,18.09
2023-06-06T22:48:37.165Z,18.07
2023-06-06T22:51:23.731Z,18.05
2023-06-06T22:54:10.365Z,18.05
2023-06-06T22:56:57.392Z,18.08
2023-06-06T22:59:44.350Z,18.08
2023-06-06T23:02:30.837Z,18.08
2023-06-06T23:05:17.120Z,18.08
2023-06-06T23:08:03.486Z,18.08
2023-06-06T23:10:50.589Z,18.10
2023-06-06T23:13:38.442Z,18.09
2023-06-06T23:16:25.128Z,18.10
2023-06-06T23:19:11.992Z,18.09
2023-06-06T23:21:59.582Z,18.06
2023-06-06T23:24:47.531Z,18.03
2023-06-06T23:27:33.890Z,18.00
2023-06-06T23:30:20.701Z,17.99
2023-06-06T23:33:07.416Z,17.94
2023-06-06T23:35:55.862Z,17.89
2023-06-06T23:38:42.519Z,17.85
2023-06-06T23:41:29.362Z,17.78
2023-06-06T23:44:16.127Z,17.71
2023-06-06T23:47:02.921Z,17.66
2023-06-06T23:49:49.923Z,17.63
2023-06-06T23:52:36.288Z,17.59
2023-06-06T23:55:22.767Z,17.56
2023-06-06T23:58:09.798Z,17.54
